Accueil
METAR-TAF:

METAR-TAF

Aéroports :

Aéroport d'Anvers

Anvers, Belgique

latitude: 51-12N, longitude: 004-28E, altitude: 12 m

Observation

Le bulletin a été fait il y a 48 minutes, à 22:20 UTC
Vent 10 kt de nord
Température 6°C
Humidité 70%
Pression 1028 hPa
Visibilité 10 km ou plus

METAR: EBAW 282220Z AUTO 01010KT 9999 // SCT023/// BKN048/// 06/01 Q1028

Heure: 00:08 (23:08 UTC)

Prévision

Le bulletin a été fait il y a 2 heures et 58 minutes, à 20:10 UTC
Prévision valable du 28 à 21 UTC au 29 à 06 UTC
Vent 9 kt de nord
Visibilité 10 km ou plus
Quelques nuages à une hauteur de 2500 ft

TAF: EBAW 282010Z 2821/2906 01009KT 9999 FEW025

Observations et prévisions météorologiques de plus de 4000 aéroports (messages METAR et TAF).

Les stations disponibles sont représentées par des disques jaunes et rouges sur la carte.

Passer la souris dessus pour voir le nom de la station.

Cliquer dessus pour voir les observations et prévisions météorologiques.

Pour changer de carte: cliquez sur les boutons verts avec une croix noire pour zoomer, sur le bouton vert avec un tiret pour effectuer un zoom arrière, ou sur les flèches vertes pour les cartes adjacentes.


METAR-TAF: